createdAt,value
2022-11-02T00:00:33.273Z,100860.53
2022-11-02T00:03:00.184Z,100861.47
2022-11-02T00:05:27.316Z,100855.06
2022-11-02T00:07:55.086Z,100852.06
2022-11-02T00:10:22.834Z,100855.56
2022-11-02T00:12:49.928Z,100856.50
2022-11-02T00:15:17.625Z,100861.25
2022-11-02T00:17:47.925Z,100865.25
2022-11-02T00:20:16.866Z,100857.94
2022-11-02T00:22:44.816Z,100854.31
2022-11-02T00:25:14.609Z,100855.03
2022-11-02T00:27:43.092Z,100857.47
2022-11-02T00:30:10.497Z,100859.16
2022-11-02T00:32:37.108Z,100854.00
2022-11-02T00:35:03.841Z,100846.47
2022-11-02T00:37:30.555Z,100855.91
2022-11-02T00:39:57.187Z,100857.09
2022-11-02T00:42:23.946Z,100850.22
2022-11-02T00:44:50.711Z,100846.75
2022-11-02T00:47:19.386Z,100846.66
2022-11-02T00:49:46.173Z,100846.75
2022-11-02T00:52:13.147Z,100844.91
2022-11-02T00:54:40.140Z,100846.38
2022-11-02T00:57:06.871Z,100840.53
2022-11-02T00:59:33.506Z,100839.28
2022-11-02T01:02:00.227Z,100843.03
2022-11-02T01:04:27.853Z,100831.97
2022-11-02T01:06:54.747Z,100835.50
2022-11-02T01:09:21.799Z,100841.66
2022-11-02T01:11:48.487Z,100831.69
2022-11-02T01:14:15.189Z,100840.66
2022-11-02T01:16:41.894Z,100832.19
2022-11-02T01:19:08.661Z,100830.69
2022-11-02T01:21:35.289Z,100826.31
2022-11-02T01:24:02.159Z,100828.16
2022-11-02T01:26:31.066Z,100819.88
2022-11-02T01:28:57.722Z,100819.28
2022-11-02T01:31:24.349Z,100809.31
2022-11-02T01:33:51.115Z,100811.97
2022-11-02T01:38:54.981Z,100808.09
2022-11-02T01:41:22.404Z,100806.09
2022-11-02T01:43:54.381Z,100804.50
2022-11-02T01:46:28.928Z,100807.03
2022-11-02T01:49:01.188Z,100805.56
2022-11-02T01:51:33.270Z,100812.88
2022-11-02T01:54:05.422Z,100804.03
2022-11-02T01:56:33.848Z,100805.19
2022-11-02T01:59:10.147Z,100794.16
2022-11-02T02:01:37.285Z,100799.88
2022-11-02T02:04:05.181Z,100797.84
2022-11-02T02:06:38.041Z,100789.88
2022-11-02T02:09:07.793Z,100787.56
2022-11-02T02:11:37.236Z,100784.53
2022-11-02T02:14:19.605Z,100780.41
2022-11-02T02:17:08.704Z,100774.19
2022-11-02T02:19:50.681Z,100777.03
2022-11-02T02:22:29.727Z,100781.81
2022-11-02T02:25:19.672Z,100775.25
2022-11-02T02:28:04.283Z,100767.22
2022-11-02T02:30:40.431Z,100762.94
2022-11-02T02:33:35.879Z,100756.72
2022-11-02T02:36:20.877Z,100763.34
2022-11-02T02:39:01.262Z,100752.56
2022-11-02T02:41:43.412Z,100740.09
2022-11-02T02:44:23.038Z,100756.75
2022-11-02T02:46:59.135Z,100760.19
2022-11-02T02:49:44.675Z,100754.19
2022-11-02T02:52:13.077Z,100756.03
2022-11-02T02:54:45.365Z,100759.31
2022-11-02T02:57:19.118Z,100760.59
2022-11-02T02:59:50.716Z,100763.38
2022-11-02T03:02:27.461Z,100759.78
2022-11-02T03:04:54.508Z,100753.31
2022-11-02T03:07:29.663Z,100759.41
2022-11-02T03:10:28.197Z,100753.31
2022-11-02T03:13:18.299Z,100763.34
2022-11-02T03:15:51.195Z,100758.03
2022-11-02T03:18:44.140Z,100750.56
2022-11-02T03:21:39.964Z,100745.72
2022-11-02T03:24:18.482Z,100737.41
2022-11-02T03:27:03.222Z,100739.13
2022-11-02T03:29:41.961Z,100721.03
2022-11-02T03:32:20.866Z,100725.06
2022-11-02T03:34:50.287Z,100719.91
2022-11-02T03:37:22.861Z,100724.47
2022-11-02T03:39:58.779Z,100725.19
2022-11-02T03:42:28.138Z,100729.13
2022-11-02T03:45:01.141Z,100736.41
2022-11-02T03:47:33.248Z,100732.53
2022-11-02T03:50:08.245Z,100740.91
2022-11-02T03:52:40.017Z,100740.25
2022-11-02T03:55:20.673Z,100738.69
2022-11-02T03:57:50.327Z,100738.59
2022-11-02T04:00:25.848Z,100746.41
2022-11-02T04:03:00.010Z,100757.19
2022-11-02T04:05:35.028Z,100758.91
2022-11-02T04:08:22.497Z,100752.03
2022-11-02T04:11:12.082Z,100751.44
2022-11-02T04:13:58.974Z,100745.56
2022-11-02T04:16:28.567Z,100755.31
2022-11-02T04:19:16.575Z,100750.28
2022-11-02T04:22:04.270Z,100740.69
2022-11-02T04:24:51.672Z,100745.88
2022-11-02T04:27:21.239Z,100744.25
2022-11-02T04:29:49.685Z,100758.81
2022-11-02T04:32:40.453Z,100759.00
2022-11-02T04:35:12.193Z,100758.53
2022-11-02T04:38:02.623Z,100753.13
2022-11-02T04:40:34.669Z,100758.66
2022-11-02T04:43:03.664Z,100762.03
2022-11-02T04:45:31.212Z,100744.25
2022-11-02T04:48:06.810Z,100749.41
2022-11-02T04:50:34.870Z,100746.00
2022-11-02T04:53:02.598Z,100763.16
2022-11-02T04:55:31.274Z,100754.88
2022-11-02T04:57:58.841Z,100762.97
2022-11-02T05:00:25.505Z,100762.16
2022-11-02T05:02:53.473Z,100758.63
2022-11-02T05:05:22.236Z,100762.22
2022-11-02T05:07:51.523Z,100767.44
2022-11-02T05:10:18.596Z,100780.56
2022-11-02T05:12:47.275Z,100770.53
2022-11-02T05:15:14.348Z,100765.34
2022-11-02T05:17:41.052Z,100764.38
2022-11-02T05:20:09.357Z,100770.19
2022-11-02T05:22:35.978Z,100763.56
2022-11-02T05:25:02.677Z,100768.81
2022-11-02T05:27:30.326Z,100770.97
2022-11-02T05:29:56.996Z,100777.09
2022-11-02T05:32:23.695Z,100773.41
2022-11-02T05:34:50.418Z,100767.56
2022-11-02T05:37:16.990Z,100770.38
2022-11-02T05:39:46.352Z,100772.97
2022-11-02T05:42:16.320Z,100770.22
2022-11-02T05:44:43.133Z,100775.69
2022-11-02T05:47:09.863Z,100778.28
2022-11-02T05:49:36.422Z,100780.28
2022-11-02T05:52:03.149Z,100776.56
2022-11-02T05:54:29.788Z,100776.34
2022-11-02T05:56:57.234Z,100782.56
2022-11-02T05:59:23.870Z,100778.56
2022-11-02T06:01:50.620Z,100778.97
2022-11-02T06:04:17.340Z,100772.09
2022-11-02T06:06:44.075Z,100777.84
2022-11-02T06:09:10.662Z,100785.31
2022-11-02T06:11:37.332Z,100786.03
2022-11-02T06:14:04.070Z,100784.16
2022-11-02T06:16:31.414Z,100788.38
2022-11-02T06:18:58.045Z,100797.66
2022-11-02T06:21:24.721Z,100791.47
2022-11-02T06:23:51.360Z,100799.13
2022-11-02T06:26:18.165Z,100794.75
2022-11-02T06:28:44.730Z,100798.78
2022-11-02T06:31:12.719Z,100797.34
2022-11-02T06:33:39.426Z,100803.34
2022-11-02T06:36:06.487Z,100796.13
2022-11-02T06:38:33.073Z,100803.63
2022-11-02T06:41:03.929Z,100809.53
2022-11-02T06:43:31.294Z,100800.56
2022-11-02T06:45:58.438Z,100805.09
2022-11-02T06:48:31.518Z,100802.41
2022-11-02T06:51:02.089Z,100816.88
2022-11-02T06:53:28.825Z,100811.00
2022-11-02T06:55:56.983Z,100815.06
2022-11-02T06:58:24.925Z,100818.31
2022-11-02T07:01:01.215Z,100819.16
2022-11-02T07:03:28.815Z,100823.75
2022-11-02T07:05:55.515Z,100825.97
2022-11-02T07:08:22.939Z,100833.66
2022-11-02T07:10:49.728Z,100830.19
2022-11-02T07:13:16.778Z,100834.25
2022-11-02T07:15:43.708Z,100827.81
2022-11-02T07:18:12.639Z,100842.63
2022-11-02T07:20:39.255Z,100842.78
2022-11-02T07:23:06.262Z,100837.53
2022-11-02T07:25:33.623Z,100846.28
2022-11-02T07:28:01.861Z,100834.53
2022-11-02T07:30:29.944Z,100837.81
2022-11-02T07:32:57.178Z,100842.13
2022-11-02T07:35:53.642Z,100844.06
2022-11-02T07:38:20.281Z,100844.22
2022-11-02T07:40:49.472Z,100852.56
2022-11-02T07:43:16.137Z,100849.75
2022-11-02T07:45:56.946Z,100858.88
2022-11-02T07:48:23.580Z,100866.69
2022-11-02T07:50:50.167Z,100861.75
2022-11-02T07:53:16.825Z,100868.78
2022-11-02T07:55:43.502Z,100868.72
2022-11-02T07:58:13.767Z,100875.47
2022-11-02T08:00:41.541Z,100873.47
2022-11-02T08:03:10.246Z,100879.28
2022-11-02T08:05:39.520Z,100875.16
2022-11-02T08:08:09.185Z,100874.06
2022-11-02T08:10:39.200Z,100884.50
2022-11-02T08:13:12.335Z,100887.59
2022-11-02T08:15:39.324Z,100878.91
2022-11-02T08:18:20.921Z,100887.25
2022-11-02T08:20:48.805Z,100880.97
2022-11-02T08:23:19.366Z,100893.31
2022-11-02T08:25:48.025Z,100889.31
2022-11-02T08:28:21.194Z,100886.25
2022-11-02T08:30:47.955Z,100881.81
2022-11-02T08:33:16.738Z,100888.97
2022-11-02T08:35:45.228Z,100886.53
2022-11-02T08:38:12.330Z,100898.53
2022-11-02T08:40:39.354Z,100910.56
2022-11-02T08:43:08.276Z,100893.31
2022-11-02T08:46:08.404Z,100902.72
2022-11-02T08:48:23.494Z,100899.78
2022-11-02T08:50:50.225Z,100890.34
2022-11-02T08:53:17.214Z,100895.13
2022-11-02T08:55:43.807Z,100898.28
2022-11-02T08:58:11.305Z,100899.44
2022-11-02T09:00:37.809Z,100890.13
2022-11-02T09:03:05.838Z,100898.00
2022-11-02T09:05:53.569Z,100902.63
2022-11-02T09:08:20.811Z,100898.91
2022-11-02T09:10:50.334Z,100901.88
2022-11-02T09:13:25.226Z,100906.44
2022-11-02T09:15:54.805Z,100898.34
2022-11-02T09:18:22.142Z,100912.41
2022-11-02T09:20:49.840Z,100901.34
2022-11-02T09:23:17.997Z,100895.69
2022-11-02T09:25:44.776Z,100900.66
2022-11-02T09:28:11.626Z,100890.94
2022-11-02T09:30:38.710Z,100910.22
2022-11-02T09:33:06.755Z,100913.88
2022-11-02T09:35:36.584Z,100905.25
2022-11-02T09:38:05.278Z,100917.59
2022-11-02T09:40:50.654Z,100921.19
2022-11-02T09:43:35.194Z,100918.19
2022-11-02T09:46:08.237Z,100923.69
2022-11-02T09:48:46.352Z,100929.91
2022-11-02T09:51:27.035Z,100928.22
2022-11-02T09:54:08.050Z,100938.88
2022-11-02T09:56:37.130Z,100933.84
2022-11-02T09:59:27.435Z,100931.28
2022-11-02T10:02:03.240Z,100930.72
2022-11-02T10:04:38.963Z,100934.66
2022-11-02T10:07:14.510Z,100927.59
2022-11-02T10:09:48.618Z,100933.06
2022-11-02T10:12:26.879Z,100940.09
2022-11-02T10:15:02.286Z,100935.00
2022-11-02T10:17:34.302Z,100938.47
2022-11-02T10:20:07.673Z,100933.97
2022-11-02T10:22:40.439Z,100938.38
2022-11-02T10:25:08.411Z,100933.25
2022-11-02T10:27:38.743Z,100937.50
2022-11-02T10:30:16.266Z,100931.88
2022-11-02T10:32:44.872Z,100923.41
2022-11-02T10:35:57.580Z,100933.09
2022-11-02T10:38:52.454Z,100942.53
2022-11-02T10:41:56.569Z,100945.00
2022-11-02T10:44:56.524Z,100943.84
2022-11-02T10:47:29.448Z,100957.97
2022-11-02T10:50:18.435Z,100958.75
2022-11-02T10:52:46.629Z,100956.06
2022-11-02T10:55:42.464Z,100961.38
2022-11-02T10:58:15.878Z,100963.31
2022-11-02T11:00:43.022Z,100959.94
2022-11-02T11:03:13.429Z,100972.16
2022-11-02T11:06:01.949Z,100964.41
2022-11-02T11:08:42.182Z,100964.69
2022-11-02T11:11:22.313Z,100956.28
2022-11-02T11:16:54.002Z,100958.41
2022-11-02T11:22:45.259Z,100957.59
2022-11-02T11:25:28.372Z,100951.78
2022-11-02T11:27:57.465Z,100948.28
2022-11-02T11:30:59.677Z,100949.06
2022-11-02T11:33:21.539Z,100957.59
2022-11-02T11:35:50.814Z,100960.56
2022-11-02T11:38:21.248Z,100954.69
2022-11-02T11:40:55.043Z,100959.25
2022-11-02T11:43:26.109Z,100966.84
2022-11-02T11:46:02.110Z,100970.66
2022-11-02T11:48:50.370Z,100969.19
2022-11-02T11:51:31.878Z,100966.34
2022-11-02T11:54:17.832Z,100974.41
2022-11-02T11:56:44.607Z,100974.09
2022-11-02T11:59:26.727Z,100980.06
2022-11-02T12:01:57.379Z,100972.66
2022-11-02T12:04:35.950Z,100966.00
2022-11-02T12:07:02.493Z,100971.63
2022-11-02T12:09:48.225Z,100964.41
2022-11-02T12:12:31.605Z,100970.88
2022-11-02T12:15:26.192Z,100977.84
2022-11-02T12:18:05.000Z,100960.91
2022-11-02T12:20:50.203Z,100972.25
2022-11-02T12:23:19.524Z,100973.09
2022-11-02T12:26:27.550Z,100978.75
2022-11-02T12:29:12.349Z,100976.56
2022-11-02T12:31:42.345Z,100979.78
2022-11-02T12:34:53.125Z,100978.41
2022-11-02T12:37:40.997Z,100987.81
2022-11-02T12:40:39.102Z,100990.38
2022-11-02T12:43:24.304Z,101000.81
2022-11-02T12:46:03.392Z,101003.28
2022-11-02T12:48:39.228Z,101007.28
2022-11-02T12:51:19.470Z,101015.00
2022-11-02T12:53:52.383Z,101016.88
2022-11-02T12:56:34.680Z,101018.41
2022-11-02T12:59:01.782Z,101023.31
2022-11-02T13:01:36.069Z,101033.88
2022-11-02T13:04:05.951Z,101028.47
2022-11-02T13:06:44.480Z,101023.31
2022-11-02T13:09:19.231Z,101027.28
2022-11-02T13:11:52.301Z,101036.41
2022-11-02T13:14:21.013Z,101036.25
2022-11-02T13:16:55.895Z,101049.59
2022-11-02T13:19:36.972Z,101039.00
2022-11-02T13:22:05.022Z,101052.16
2022-11-02T13:24:38.502Z,101054.78
2022-11-02T13:27:33.519Z,101062.56
2022-11-02T13:30:04.344Z,101071.66
2022-11-02T13:32:40.902Z,101076.28
2022-11-02T13:35:32.933Z,101056.56
2022-11-02T13:38:37.213Z,101066.59
2022-11-02T13:41:40.798Z,101062.94
2022-11-02T13:44:42.002Z,101069.06
2022-11-02T13:47:26.946Z,101071.06
2022-11-02T13:49:56.346Z,101062.25
2022-11-02T13:52:43.167Z,101073.63
2022-11-02T13:55:27.556Z,101086.75
2022-11-02T13:57:58.082Z,101074.97
2022-11-02T14:00:24.636Z,101077.53
2022-11-02T14:02:56.572Z,101093.19
2022-11-02T14:05:32.687Z,101084.88
2022-11-02T14:08:03.608Z,101084.22
2022-11-02T14:10:38.933Z,101079.97
2022-11-02T14:13:06.038Z,101078.84
2022-11-02T14:15:32.677Z,101085.91
2022-11-02T14:18:15.249Z,101094.66
2022-11-02T14:20:47.083Z,101094.13
2022-11-02T14:23:18.581Z,101093.63
2022-11-02T14:25:45.130Z,101097.88
2022-11-02T14:28:42.331Z,101098.41
2022-11-02T14:31:18.313Z,101091.34
2022-11-02T14:33:51.314Z,101095.13
2022-11-02T14:36:17.969Z,101084.16
2022-11-02T14:39:06.339Z,101093.09
2022-11-02T14:41:54.424Z,101087.91
2022-11-02T14:44:23.928Z,101103.28
2022-11-02T14:46:57.121Z,101108.81
2022-11-02T14:49:29.618Z,101101.25
2022-11-02T14:52:08.107Z,101105.09
2022-11-02T14:54:59.347Z,101103.75
2022-11-02T14:57:36.877Z,101109.44
2022-11-02T15:00:37.155Z,101112.03
2022-11-02T15:03:29.120Z,101111.41
2022-11-02T15:06:11.011Z,101113.13
2022-11-02T15:08:54.998Z,101128.22
2022-11-02T15:11:48.593Z,101131.78
2022-11-02T15:14:33.723Z,101129.78
2022-11-02T15:17:01.138Z,101139.25
2022-11-02T15:19:39.438Z,101141.72
2022-11-02T15:22:43.768Z,101144.31
2022-11-02T15:25:13.117Z,101143.50
2022-11-02T15:27:42.480Z,101153.16
2022-11-02T15:30:17.201Z,101139.75
2022-11-02T15:32:48.532Z,101147.28
2022-11-02T15:35:21.741Z,101145.84
2022-11-02T15:38:15.761Z,101147.84
2022-11-02T15:40:49.280Z,101148.31
2022-11-02T15:43:34.477Z,101139.13
2022-11-02T15:46:20.083Z,101147.59
2022-11-02T15:49:30.354Z,101153.47
2022-11-02T15:52:21.617Z,101146.28
2022-11-02T15:55:03.363Z,101145.22
2022-11-02T15:57:55.024Z,101141.50
2022-11-02T16:00:41.288Z,101150.13
2022-11-02T16:03:10.560Z,101143.53
2022-11-02T16:05:48.378Z,101144.31
2022-11-02T16:08:24.231Z,101141.63
2022-11-02T16:10:51.282Z,101150.97
2022-11-02T16:13:22.055Z,101147.69
2022-11-02T16:15:49.791Z,101152.19
2022-11-02T16:18:28.151Z,101153.38
2022-11-02T16:21:02.382Z,101154.47
2022-11-02T16:23:32.424Z,101160.41
2022-11-02T16:26:02.966Z,101160.81
2022-11-02T16:28:32.490Z,101163.56
2022-11-02T16:31:14.436Z,101172.03
2022-11-02T16:33:53.095Z,101159.38
2022-11-02T16:36:24.728Z,101162.63
2022-11-02T16:38:58.911Z,101172.78
2022-11-02T16:41:28.106Z,101172.53
2022-11-02T16:43:57.289Z,101178.38
2022-11-02T16:46:52.731Z,101176.44
2022-11-02T16:49:54.035Z,101174.31
2022-11-02T16:52:29.139Z,101175.34
2022-11-02T16:54:55.791Z,101170.81
2022-11-02T16:57:27.953Z,101174.00
2022-11-02T16:59:56.907Z,101177.91
2022-11-02T17:02:32.427Z,101172.94
2022-11-02T17:05:04.395Z,101171.69
2022-11-02T17:07:38.779Z,101169.03
2022-11-02T17:10:06.487Z,101169.34
2022-11-02T17:12:36.912Z,101172.03
2022-11-02T17:15:19.803Z,101161.41
2022-11-02T17:17:47.180Z,101175.38
2022-11-02T17:20:16.573Z,101173.41
2022-11-02T17:22:52.414Z,101172.66
2022-11-02T17:25:20.957Z,101189.59
2022-11-02T17:27:48.331Z,101188.06
2022-11-02T17:30:30.483Z,101188.59
2022-11-02T17:33:29.642Z,101181.38
2022-11-02T17:36:07.955Z,101190.84
2022-11-02T17:38:35.134Z,101184.59
2022-11-02T17:41:02.150Z,101191.09
2022-11-02T17:43:28.860Z,101191.59
2022-11-02T17:45:57.919Z,101195.28
2022-11-02T17:48:25.631Z,101197.72
2022-11-02T17:50:53.650Z,101194.19
2022-11-02T17:53:20.536Z,101189.69
2022-11-02T17:55:47.161Z,101193.16
2022-11-02T17:58:14.742Z,101188.69
2022-11-02T18:00:41.494Z,101198.66
2022-11-02T18:03:15.089Z,101190.22
2022-11-02T18:05:43.754Z,101190.19
2022-11-02T18:08:13.670Z,101191.41
2022-11-02T18:10:42.750Z,101194.22
2022-11-02T18:13:17.655Z,101193.75
2022-11-02T18:15:45.156Z,101188.13
2022-11-02T18:18:12.280Z,101189.41
2022-11-02T18:20:41.773Z,101187.59
2022-11-02T18:23:15.639Z,101190.38
2022-11-02T18:25:42.562Z,101187.88
2022-11-02T18:28:09.260Z,101186.81
2022-11-02T18:30:35.985Z,101198.06
2022-11-02T18:33:02.942Z,101205.38
2022-11-02T18:35:29.808Z,101211.91
2022-11-02T18:37:56.767Z,101204.84
2022-11-02T18:40:23.487Z,101205.16
2022-11-02T18:42:50.194Z,101200.16
2022-11-02T18:45:17.068Z,101199.19
2022-11-02T18:47:43.941Z,101196.03
2022-11-02T18:50:12.937Z,101196.00
2022-11-02T18:52:41.930Z,101197.81
2022-11-02T18:55:08.640Z,101187.44
2022-11-02T18:57:35.264Z,101190.06
2022-11-02T19:00:03.001Z,101193.16
2022-11-02T19:02:30.049Z,101189.16
2022-11-02T19:05:52.331Z,101189.75
2022-11-02T19:08:37.639Z,101193.06
2022-11-02T19:11:04.455Z,101196.50
2022-11-02T19:13:31.060Z,101192.38
2022-11-02T19:15:57.716Z,101189.25
2022-11-02T19:18:24.358Z,101184.50
2022-11-02T19:20:50.953Z,101190.00
2022-11-02T19:23:17.541Z,101185.22
2022-11-02T19:25:50.406Z,101189.19
2022-11-02T19:28:17.150Z,101184.41
2022-11-02T19:30:43.711Z,101181.75
2022-11-02T19:33:10.398Z,101182.38
2022-11-02T19:35:36.956Z,101172.91
2022-11-02T19:38:03.637Z,101185.97
2022-11-02T19:40:30.231Z,101173.91
2022-11-02T19:42:56.858Z,101179.31
2022-11-02T19:45:23.425Z,101182.84
2022-11-02T19:47:50.498Z,101181.44
2022-11-02T19:50:17.182Z,101180.59
2022-11-02T19:52:46.308Z,101182.22
2022-11-02T19:55:12.920Z,101180.44
2022-11-02T19:57:39.599Z,101178.84
2022-11-02T20:00:06.801Z,101180.22
2022-11-02T20:02:35.679Z,101173.38
2022-11-02T20:05:02.273Z,101178.25
2022-11-02T20:07:28.955Z,101173.72
2022-11-02T20:09:58.698Z,101181.16
2022-11-02T20:12:26.509Z,101185.78
2022-11-02T20:14:53.145Z,101190.38
2022-11-02T20:17:51.957Z,101179.19
2022-11-02T20:20:07.401Z,101186.47
2022-11-02T20:22:35.254Z,101190.47
2022-11-02T20:25:01.904Z,101185.97
2022-11-02T20:27:28.481Z,101185.84
2022-11-02T20:29:55.145Z,101180.63
2022-11-02T20:32:22.390Z,101179.34
2022-11-02T20:34:49.051Z,101182.28
2022-11-02T20:37:15.668Z,101174.16
2022-11-02T20:39:42.284Z,101175.69
2022-11-02T20:42:11.007Z,101164.75
2022-11-02T20:44:37.663Z,101167.97
2022-11-02T20:47:04.282Z,101170.38
2022-11-02T20:49:49.977Z,101168.50
2022-11-02T20:52:18.880Z,101162.47
2022-11-02T20:54:45.451Z,101161.84
2022-11-02T20:57:12.075Z,101162.56
2022-11-02T20:59:38.781Z,101164.56
2022-11-02T21:02:05.608Z,101157.00
2022-11-02T21:04:32.341Z,101153.34
2022-11-02T21:06:59.014Z,101155.75
2022-11-02T21:09:26.438Z,101159.84
2022-11-02T21:12:11.765Z,101156.56
2022-11-02T21:14:38.502Z,101158.50
2022-11-02T21:17:06.095Z,101150.72
2022-11-02T21:19:32.749Z,101159.63
2022-11-02T21:22:00.444Z,101153.59
2022-11-02T21:24:28.511Z,101148.63
2022-11-02T21:26:55.141Z,101146.16
2022-11-02T21:29:21.849Z,101137.53
2022-11-02T21:31:48.892Z,101132.25
2022-11-02T21:34:15.602Z,101132.47
2022-11-02T21:36:42.167Z,101134.88
2022-11-02T21:39:08.787Z,101121.88
2022-11-02T21:41:38.552Z,101128.03
2022-11-02T21:44:06.670Z,101119.91
2022-11-02T21:46:33.394Z,101123.56
2022-11-02T21:49:00.128Z,101127.16
2022-11-02T21:51:27.007Z,101116.78
2022-11-02T21:53:53.664Z,101122.38
2022-11-02T21:56:22.930Z,101121.88
2022-11-02T21:58:49.626Z,101121.03
2022-11-02T22:01:34.828Z,101117.56
2022-11-02T22:04:02.148Z,101123.78
2022-11-02T22:06:31.433Z,101121.38
2022-11-02T22:08:59.848Z,101113.28
2022-11-02T22:11:27.396Z,101114.06
2022-11-02T22:13:54.869Z,101124.44
2022-11-02T22:16:28.177Z,101118.97
2022-11-02T22:18:57.030Z,101120.69
2022-11-02T22:21:25.247Z,101116.66
2022-11-02T22:23:52.819Z,101112.66
2022-11-02T22:26:27.666Z,101116.00
2022-11-02T22:28:57.130Z,101114.03
2022-11-02T22:31:26.917Z,101100.91
2022-11-02T22:33:55.854Z,101101.09
2022-11-02T22:36:25.683Z,101104.34
2022-11-02T22:38:54.414Z,101098.50
2022-11-02T22:41:34.682Z,101093.75
2022-11-02T22:44:06.779Z,101095.06
2022-11-02T22:46:36.388Z,101099.00
2022-11-02T22:49:04.679Z,101082.88
2022-11-02T22:51:35.583Z,101076.34
2022-11-02T22:54:04.776Z,101071.56
2022-11-02T22:56:32.112Z,101070.72
2022-11-02T22:58:59.268Z,101071.41
2022-11-02T23:01:28.192Z,101068.66
2022-11-02T23:03:55.364Z,101061.28
2022-11-02T23:06:23.383Z,101066.56
2022-11-02T23:08:51.948Z,101056.97
2022-11-02T23:11:22.587Z,101058.88
2022-11-02T23:13:49.232Z,101051.69
2022-11-02T23:16:23.883Z,101044.06
2022-11-02T23:19:29.682Z,101057.59
2022-11-02T23:22:25.158Z,101056.63
2022-11-02T23:25:11.608Z,101054.78
2022-11-02T23:27:59.616Z,101058.06
2022-11-02T23:30:47.752Z,101062.44
2022-11-02T23:33:15.222Z,101058.31
2022-11-02T23:36:01.626Z,101045.06
2022-11-02T23:38:48.603Z,101040.59
2022-11-02T23:41:16.415Z,101041.34
2022-11-02T23:43:43.305Z,101041.16
2022-11-02T23:46:09.964Z,101046.66
2022-11-02T23:48:36.527Z,101045.63
2022-11-02T23:51:21.760Z,101047.06
2022-11-02T23:54:06.970Z,101045.09
2022-11-02T23:56:43.451Z,101038.66
2022-11-02T23:59:14.642Z,101040.34
